sensor_id;sensor_type;location;lat;lon;timestamp;P1;durP1;ratioP1;P2;durP2;ratioP2
17398;SDS011;8817;48.170;8.592;2023-04-25T00:00:26;6.40;;;6.00;;
17398;SDS011;8817;48.170;8.592;2023-04-25T00:02:53;7.10;;;6.40;;
17398;SDS011;8817;48.170;8.592;2023-04-25T00:05:21;8.43;;;6.20;;
17398;SDS011;8817;48.170;8.592;2023-04-25T00:07:50;6.80;;;6.30;;
17398;SDS011;8817;48.170;8.592;2023-04-25T00:10:18;6.80;;;6.30;;
17398;SDS011;8817;48.170;8.592;2023-04-25T00:12:45;6.50;;;6.10;;
17398;SDS011;8817;48.170;8.592;2023-04-25T00:15:12;6.37;;;6.07;;
17398;SDS011;8817;48.170;8.592;2023-04-25T00:17:39;6.10;;;5.80;;
17398;SDS011;8817;48.170;8.592;2023-04-25T00:20:07;6.67;;;6.20;;
17398;SDS011;8817;48.170;8.592;2023-04-25T00:22:35;6.20;;;5.80;;
17398;SDS011;8817;48.170;8.592;2023-04-25T00:25:04;7.17;;;6.33;;
17398;SDS011;8817;48.170;8.592;2023-04-25T00:27:32;6.40;;;6.00;;
17398;SDS011;8817;48.170;8.592;2023-04-25T00:29:59;6.70;;;6.30;;
17398;SDS011;8817;48.170;8.592;2023-04-25T00:32:26;6.50;;;6.10;;
17398;SDS011;8817;48.170;8.592;2023-04-25T00:34:53;6.50;;;6.17;;
17398;SDS011;8817;48.170;8.592;2023-04-25T00:37:20;6.90;;;6.30;;
17398;SDS011;8817;48.170;8.592;2023-04-25T00:39:47;6.37;;;6.07;;
17398;SDS011;8817;48.170;8.592;2023-04-25T00:42:16;6.40;;;6.00;;
17398;SDS011;8817;48.170;8.592;2023-04-25T00:44:43;6.77;;;6.37;;
17398;SDS011;8817;48.170;8.592;2023-04-25T00:47:11;6.63;;;6.20;;
17398;SDS011;8817;48.170;8.592;2023-04-25T00:49:38;6.47;;;6.07;;
17398;SDS011;8817;48.170;8.592;2023-04-25T00:52:05;6.30;;;6.00;;
17398;SDS011;8817;48.170;8.592;2023-04-25T00:54:32;7.00;;;6.40;;
17398;SDS011;8817;48.170;8.592;2023-04-25T00:56:59;6.50;;;6.20;;
17398;SDS011;8817;48.170;8.592;2023-04-25T00:59:28;6.60;;;6.20;;
17398;SDS011;8817;48.170;8.592;2023-04-25T01:01:55;6.30;;;6.00;;
17398;SDS011;8817;48.170;8.592;2023-04-25T01:04:23;6.57;;;6.17;;
17398;SDS011;8817;48.170;8.592;2023-04-25T01:06:49;6.63;;;6.33;;
17398;SDS011;8817;48.170;8.592;2023-04-25T01:09:17;6.77;;;6.37;;
17398;SDS011;8817;48.170;8.592;2023-04-25T01:11:45;6.90;;;6.40;;
17398;SDS011;8817;48.170;8.592;2023-04-25T01:14:12;6.83;;;6.33;;
17398;SDS011;8817;48.170;8.592;2023-04-25T01:16:40;6.10;;;5.87;;
17398;SDS011;8817;48.170;8.592;2023-04-25T01:19:08;6.30;;;5.90;;
17398;SDS011;8817;48.170;8.592;2023-04-25T01:21:38;6.30;;;6.00;;
17398;SDS011;8817;48.170;8.592;2023-04-25T01:24:05;6.60;;;6.10;;
17398;SDS011;8817;48.170;8.592;2023-04-25T01:26:33;6.70;;;6.30;;
17398;SDS011;8817;48.170;8.592;2023-04-25T01:29:01;6.93;;;6.33;;
17398;SDS011;8817;48.170;8.592;2023-04-25T01:31:29;6.60;;;6.20;;
17398;SDS011;8817;48.170;8.592;2023-04-25T01:33:57;6.33;;;6.03;;
17398;SDS011;8817;48.170;8.592;2023-04-25T01:36:24;6.97;;;6.57;;
17398;SDS011;8817;48.170;8.592;2023-04-25T01:38:53;6.87;;;6.37;;
17398;SDS011;8817;48.170;8.592;2023-04-25T01:41:20;6.40;;;6.10;;
17398;SDS011;8817;48.170;8.592;2023-04-25T01:43:48;6.60;;;6.20;;
17398;SDS011;8817;48.170;8.592;2023-04-25T01:46:15;6.77;;;6.37;;
17398;SDS011;8817;48.170;8.592;2023-04-25T01:48:42;6.60;;;6.20;;
17398;SDS011;8817;48.170;8.592;2023-04-25T01:51:09;8.60;;;6.67;;
17398;SDS011;8817;48.170;8.592;2023-04-25T01:53:37;6.67;;;6.37;;
17398;SDS011;8817;48.170;8.592;2023-04-25T01:56:06;7.13;;;6.53;;
17398;SDS011;8817;48.170;8.592;2023-04-25T01:58:33;6.50;;;6.10;;
17398;SDS011;8817;48.170;8.592;2023-04-25T02:01:00;6.40;;;6.10;;
17398;SDS011;8817;48.170;8.592;2023-04-25T02:03:27;6.50;;;6.20;;
17398;SDS011;8817;48.170;8.592;2023-04-25T02:05:53;6.43;;;6.17;;
17398;SDS011;8817;48.170;8.592;2023-04-25T02:08:20;7.03;;;6.60;;
17398;SDS011;8817;48.170;8.592;2023-04-25T02:10:47;6.27;;;5.97;;
17398;SDS011;8817;48.170;8.592;2023-04-25T02:13:16;6.70;;;6.30;;
17398;SDS011;8817;48.170;8.592;2023-04-25T02:15:42;6.50;;;6.20;;
17398;SDS011;8817;48.170;8.592;2023-04-25T02:18:09;6.40;;;6.00;;
17398;SDS011;8817;48.170;8.592;2023-04-25T02:20:36;6.70;;;6.40;;
17398;SDS011;8817;48.170;8.592;2023-04-25T02:23:03;6.67;;;6.27;;
17398;SDS011;8817;48.170;8.592;2023-04-25T02:25:30;6.47;;;6.17;;
17398;SDS011;8817;48.170;8.592;2023-04-25T02:27:57;6.90;;;6.40;;
17398;SDS011;8817;48.170;8.592;2023-04-25T02:30:25;7.60;;;6.50;;
17398;SDS011;8817;48.170;8.592;2023-04-25T02:32:52;6.63;;;6.23;;
17398;SDS011;8817;48.170;8.592;2023-04-25T02:35:19;7.13;;;6.70;;
17398;SDS011;8817;48.170;8.592;2023-04-25T02:37:46;6.70;;;6.40;;
17398;SDS011;8817;48.170;8.592;2023-04-25T02:40:13;6.80;;;6.40;;
17398;SDS011;8817;48.170;8.592;2023-04-25T02:42:40;6.47;;;6.17;;
17398;SDS011;8817;48.170;8.592;2023-04-25T02:45:10;7.03;;;6.47;;
17398;SDS011;8817;48.170;8.592;2023-04-25T02:47:38;6.90;;;6.40;;
17398;SDS011;8817;48.170;8.592;2023-04-25T02:50:05;6.37;;;6.10;;
17398;SDS011;8817;48.170;8.592;2023-04-25T02:52:33;6.70;;;6.30;;
17398;SDS011;8817;48.170;8.592;2023-04-25T02:55:00;7.10;;;6.70;;
17398;SDS011;8817;48.170;8.592;2023-04-25T02:57:27;6.67;;;6.30;;
17398;SDS011;8817;48.170;8.592;2023-04-25T02:59:54;7.03;;;6.63;;
17398;SDS011;8817;48.170;8.592;2023-04-25T03:02:21;7.00;;;6.53;;
17398;SDS011;8817;48.170;8.592;2023-04-25T03:04:49;7.00;;;6.70;;
17398;SDS011;8817;48.170;8.592;2023-04-25T03:07:16;7.07;;;6.67;;
17398;SDS011;8817;48.170;8.592;2023-04-25T03:09:42;7.03;;;6.53;;
17398;SDS011;8817;48.170;8.592;2023-04-25T03:12:09;7.63;;;7.20;;
17398;SDS011;8817;48.170;8.592;2023-04-25T03:14:36;7.00;;;6.70;;
17398;SDS011;8817;48.170;8.592;2023-04-25T03:17:03;7.20;;;6.80;;
17398;SDS011;8817;48.170;8.592;2023-04-25T03:19:30;7.30;;;6.90;;
17398;SDS011;8817;48.170;8.592;2023-04-25T03:21:58;7.43;;;6.87;;
17398;SDS011;8817;48.170;8.592;2023-04-25T03:24:25;7.43;;;6.70;;
17398;SDS011;8817;48.170;8.592;2023-04-25T03:26:52;7.27;;;6.73;;
17398;SDS011;8817;48.170;8.592;2023-04-25T03:29:19;7.20;;;6.60;;
17398;SDS011;8817;48.170;8.592;2023-04-25T03:31:49;8.10;;;7.10;;
17398;SDS011;8817;48.170;8.592;2023-04-25T03:34:16;7.13;;;6.63;;
17398;SDS011;8817;48.170;8.592;2023-04-25T03:36:43;7.50;;;6.90;;
17398;SDS011;8817;48.170;8.592;2023-04-25T03:39:11;7.30;;;6.80;;
17398;SDS011;8817;48.170;8.592;2023-04-25T03:41:38;7.37;;;6.70;;
17398;SDS011;8817;48.170;8.592;2023-04-25T03:44:05;7.07;;;6.67;;
17398;SDS011;8817;48.170;8.592;2023-04-25T03:46:32;7.30;;;6.67;;
17398;SDS011;8817;48.170;8.592;2023-04-25T03:48:58;7.27;;;6.73;;
17398;SDS011;8817;48.170;8.592;2023-04-25T03:51:25;7.10;;;6.70;;
17398;SDS011;8817;48.170;8.592;2023-04-25T03:53:52;7.30;;;6.90;;
17398;SDS011;8817;48.170;8.592;2023-04-25T03:56:21;7.70;;;7.07;;
17398;SDS011;8817;48.170;8.592;2023-04-25T03:58:47;7.23;;;6.83;;
17398;SDS011;8817;48.170;8.592;2023-04-25T04:01:14;6.80;;;6.50;;
17398;SDS011;8817;48.170;8.592;2023-04-25T04:03:41;7.70;;;7.20;;
17398;SDS011;8817;48.170;8.592;2023-04-25T04:06:08;7.20;;;6.80;;
17398;SDS011;8817;48.170;8.592;2023-04-25T04:08:35;7.10;;;6.70;;
17398;SDS011;8817;48.170;8.592;2023-04-25T04:11:02;7.17;;;6.67;;
17398;SDS011;8817;48.170;8.592;2023-04-25T04:13:31;7.40;;;6.80;;
17398;SDS011;8817;48.170;8.592;2023-04-25T04:15:58;7.40;;;7.00;;
17398;SDS011;8817;48.170;8.592;2023-04-25T04:18:25;7.50;;;7.00;;
17398;SDS011;8817;48.170;8.592;2023-04-25T04:20:52;7.00;;;6.70;;
17398;SDS011;8817;48.170;8.592;2023-04-25T04:23:19;7.07;;;6.70;;
17398;SDS011;8817;48.170;8.592;2023-04-25T04:25:47;7.30;;;6.90;;
17398;SDS011;8817;48.170;8.592;2023-04-25T04:28:14;7.07;;;6.67;;
17398;SDS011;8817;48.170;8.592;2023-04-25T04:30:44;7.70;;;7.00;;
17398;SDS011;8817;48.170;8.592;2023-04-25T04:33:12;8.17;;;7.57;;
17398;SDS011;8817;48.170;8.592;2023-04-25T04:35:40;7.50;;;7.10;;
17398;SDS011;8817;48.170;8.592;2023-04-25T04:38:07;7.67;;;7.17;;
17398;SDS011;8817;48.170;8.592;2023-04-25T04:40:35;7.60;;;7.20;;
17398;SDS011;8817;48.170;8.592;2023-04-25T04:43:02;7.40;;;7.00;;
17398;SDS011;8817;48.170;8.592;2023-04-25T04:45:29;7.40;;;7.00;;
17398;SDS011;8817;48.170;8.592;2023-04-25T04:47:57;8.00;;;7.40;;
17398;SDS011;8817;48.170;8.592;2023-04-25T04:50:24;8.50;;;7.57;;
17398;SDS011;8817;48.170;8.592;2023-04-25T04:52:52;7.83;;;7.33;;
17398;SDS011;8817;48.170;8.592;2023-04-25T04:55:20;7.93;;;7.43;;
17398;SDS011;8817;48.170;8.592;2023-04-25T04:57:47;7.53;;;7.13;;
17398;SDS011;8817;48.170;8.592;2023-04-25T05:00:14;7.70;;;7.20;;
17398;SDS011;8817;48.170;8.592;2023-04-25T05:02:41;8.07;;;7.57;;
17398;SDS011;8817;48.170;8.592;2023-04-25T05:05:09;8.63;;;7.93;;
17398;SDS011;8817;48.170;8.592;2023-04-25T05:07:36;7.87;;;7.37;;
17398;SDS011;8817;48.170;8.592;2023-04-25T05:10:04;8.57;;;7.90;;
17398;SDS011;8817;48.170;8.592;2023-04-25T05:12:31;8.80;;;8.10;;
17398;SDS011;8817;48.170;8.592;2023-04-25T05:14:58;8.47;;;7.77;;
17398;SDS011;8817;48.170;8.592;2023-04-25T05:17:25;11.47;;;7.63;;
17398;SDS011;8817;48.170;8.592;2023-04-25T05:19:52;8.37;;;7.77;;
17398;SDS011;8817;48.170;8.592;2023-04-25T05:22:20;8.63;;;7.97;;
17398;SDS011;8817;48.170;8.592;2023-04-25T05:24:47;11.63;;;9.30;;
17398;SDS011;8817;48.170;8.592;2023-04-25T05:27:16;9.30;;;8.40;;
17398;SDS011;8817;48.170;8.592;2023-04-25T05:29:43;8.13;;;7.63;;
17398;SDS011;8817;48.170;8.592;2023-04-25T05:32:10;8.50;;;7.93;;
17398;SDS011;8817;48.170;8.592;2023-04-25T05:34:37;8.20;;;7.60;;
17398;SDS011;8817;48.170;8.592;2023-04-25T05:37:04;7.90;;;7.40;;
17398;SDS011;8817;48.170;8.592;2023-04-25T05:39:32;7.63;;;7.23;;
17398;SDS011;8817;48.170;8.592;2023-04-25T05:41:59;7.90;;;7.50;;
17398;SDS011;8817;48.170;8.592;2023-04-25T05:44:28;7.90;;;7.40;;
17398;SDS011;8817;48.170;8.592;2023-04-25T05:46:56;8.23;;;7.60;;
17398;SDS011;8817;48.170;8.592;2023-04-25T05:49:22;8.63;;;7.93;;
17398;SDS011;8817;48.170;8.592;2023-04-25T05:51:49;8.07;;;7.57;;
17398;SDS011;8817;48.170;8.592;2023-04-25T05:54:16;8.43;;;7.83;;
17398;SDS011;8817;48.170;8.592;2023-04-25T05:56:45;8.57;;;7.90;;
17398;SDS011;8817;48.170;8.592;2023-04-25T05:59:11;8.43;;;7.83;;
17398;SDS011;8817;48.170;8.592;2023-04-25T06:01:38;7.90;;;7.50;;
17398;SDS011;8817;48.170;8.592;2023-04-25T06:04:06;8.40;;;7.83;;
17398;SDS011;8817;48.170;8.592;2023-04-25T06:06:33;8.40;;;7.70;;
17398;SDS011;8817;48.170;8.592;2023-04-25T06:09:00;8.00;;;7.40;;
17398;SDS011;8817;48.170;8.592;2023-04-25T06:11:26;8.10;;;7.50;;
17398;SDS011;8817;48.170;8.592;2023-04-25T06:13:55;7.80;;;7.40;;
17398;SDS011;8817;48.170;8.592;2023-04-25T06:16:21;8.20;;;7.60;;
17398;SDS011;8817;48.170;8.592;2023-04-25T06:18:50;8.20;;;7.60;;
17398;SDS011;8817;48.170;8.592;2023-04-25T06:21:17;7.90;;;7.40;;
17398;SDS011;8817;48.170;8.592;2023-04-25T06:23:44;8.30;;;7.80;;
17398;SDS011;8817;48.170;8.592;2023-04-25T06:26:11;8.53;;;7.77;;
17398;SDS011;8817;48.170;8.592;2023-04-25T06:28:38;8.40;;;7.90;;
17398;SDS011;8817;48.170;8.592;2023-04-25T06:31:06;8.10;;;7.60;;
17398;SDS011;8817;48.170;8.592;2023-04-25T06:33:33;7.90;;;7.40;;
17398;SDS011;8817;48.170;8.592;2023-04-25T06:36:00;8.40;;;7.90;;
17398;SDS011;8817;48.170;8.592;2023-04-25T06:38:27;8.17;;;7.73;;
17398;SDS011;8817;48.170;8.592;2023-04-25T06:40:54;8.70;;;8.00;;
17398;SDS011;8817;48.170;8.592;2023-04-25T06:43:21;7.93;;;7.53;;
17398;SDS011;8817;48.170;8.592;2023-04-25T06:45:47;8.10;;;7.60;;
17398;SDS011;8817;48.170;8.592;2023-04-25T06:48:16;7.63;;;7.30;;
17398;SDS011;8817;48.170;8.592;2023-04-25T06:50:42;8.30;;;7.60;;
17398;SDS011;8817;48.170;8.592;2023-04-25T06:53:09;7.87;;;7.47;;
17398;SDS011;8817;48.170;8.592;2023-04-25T06:55:36;7.77;;;7.37;;
17398;SDS011;8817;48.170;8.592;2023-04-25T06:58:03;8.00;;;7.50;;
17398;SDS011;8817;48.170;8.592;2023-04-25T07:00:30;8.23;;;7.30;;
17398;SDS011;8817;48.170;8.592;2023-04-25T07:02:58;8.93;;;8.03;;
17398;SDS011;8817;48.170;8.592;2023-04-25T07:05:26;8.80;;;8.00;;
17398;SDS011;8817;48.170;8.592;2023-04-25T07:07:53;8.80;;;8.00;;
17398;SDS011;8817;48.170;8.592;2023-04-25T07:10:20;8.33;;;7.63;;
17398;SDS011;8817;48.170;8.592;2023-04-25T07:12:47;10.13;;;8.00;;
17398;SDS011;8817;48.170;8.592;2023-04-25T07:15:14;8.30;;;7.70;;
17398;SDS011;8817;48.170;8.592;2023-04-25T07:17:41;8.47;;;7.97;;
17398;SDS011;8817;48.170;8.592;2023-04-25T07:20:08;8.43;;;7.83;;
17398;SDS011;8817;48.170;8.592;2023-04-25T07:22:37;8.03;;;7.63;;
17398;SDS011;8817;48.170;8.592;2023-04-25T07:25:05;9.13;;;8.43;;
17398;SDS011;8817;48.170;8.592;2023-04-25T07:27:33;8.27;;;7.77;;
17398;SDS011;8817;48.170;8.592;2023-04-25T07:30:00;8.47;;;7.97;;
17398;SDS011;8817;48.170;8.592;2023-04-25T07:32:28;8.23;;;7.73;;
17398;SDS011;8817;48.170;8.592;2023-04-25T07:34:55;8.20;;;7.60;;
17398;SDS011;8817;48.170;8.592;2023-04-25T07:37:22;8.23;;;7.83;;
17398;SDS011;8817;48.170;8.592;2023-04-25T07:39:50;8.47;;;7.70;;
17398;SDS011;8817;48.170;8.592;2023-04-25T07:42:17;8.40;;;7.90;;
17398;SDS011;8817;48.170;8.592;2023-04-25T07:44:44;8.60;;;8.10;;
17398;SDS011;8817;48.170;8.592;2023-04-25T07:47:11;8.60;;;8.10;;
17398;SDS011;8817;48.170;8.592;2023-04-25T07:49:38;8.17;;;7.77;;
17398;SDS011;8817;48.170;8.592;2023-04-25T07:52:06;8.20;;;7.70;;
17398;SDS011;8817;48.170;8.592;2023-04-25T07:54:33;8.47;;;7.73;;
17398;SDS011;8817;48.170;8.592;2023-04-25T07:57:01;8.20;;;7.80;;
17398;SDS011;8817;48.170;8.592;2023-04-25T07:59:28;8.30;;;7.80;;
17398;SDS011;8817;48.170;8.592;2023-04-25T08:01:55;8.13;;;7.73;;
17398;SDS011;8817;48.170;8.592;2023-04-25T08:04:23;8.70;;;8.10;;
17398;SDS011;8817;48.170;8.592;2023-04-25T08:06:50;8.20;;;7.80;;
17398;SDS011;8817;48.170;8.592;2023-04-25T08:09:17;8.50;;;8.00;;
17398;SDS011;8817;48.170;8.592;2023-04-25T08:11:44;9.27;;;8.57;;
17398;SDS011;8817;48.170;8.592;2023-04-25T08:14:13;8.53;;;7.97;;
17398;SDS011;8817;48.170;8.592;2023-04-25T08:16:40;8.93;;;8.30;;
17398;SDS011;8817;48.170;8.592;2023-04-25T08:19:07;8.90;;;8.00;;
17398;SDS011;8817;48.170;8.592;2023-04-25T08:21:34;8.20;;;7.80;;
17398;SDS011;8817;48.170;8.592;2023-04-25T08:24:01;9.80;;;8.20;;
17398;SDS011;8817;48.170;8.592;2023-04-25T08:26:28;8.10;;;7.60;;
17398;SDS011;8817;48.170;8.592;2023-04-25T08:28:55;8.40;;;8.00;;
17398;SDS011;8817;48.170;8.592;2023-04-25T08:31:23;8.10;;;7.70;;
17398;SDS011;8817;48.170;8.592;2023-04-25T08:33:50;7.30;;;7.00;;
17398;SDS011;8817;48.170;8.592;2023-04-25T08:36:17;6.90;;;6.70;;
17398;SDS011;8817;48.170;8.592;2023-04-25T08:38:44;6.70;;;6.50;;
17398;SDS011;8817;48.170;8.592;2023-04-25T08:41:11;6.80;;;6.60;;
17398;SDS011;8817;48.170;8.592;2023-04-25T08:43:38;7.20;;;6.90;;
17398;SDS011;8817;48.170;8.592;2023-04-25T08:46:08;6.90;;;6.70;;
17398;SDS011;8817;48.170;8.592;2023-04-25T08:48:38;6.80;;;6.60;;
17398;SDS011;8817;48.170;8.592;2023-04-25T08:51:08;6.73;;;6.53;;
17398;SDS011;8817;48.170;8.592;2023-04-25T08:53:41;6.70;;;6.50;;
17398;SDS011;8817;48.170;8.592;2023-04-25T08:56:09;6.70;;;6.50;;
17398;SDS011;8817;48.170;8.592;2023-04-25T08:58:39;6.90;;;6.70;;
17398;SDS011;8817;48.170;8.592;2023-04-25T09:01:06;6.73;;;6.53;;
17398;SDS011;8817;48.170;8.592;2023-04-25T09:03:34;6.60;;;6.40;;
17398;SDS011;8817;48.170;8.592;2023-04-25T09:06:02;6.90;;;6.50;;
17398;SDS011;8817;48.170;8.592;2023-04-25T09:08:30;6.57;;;6.37;;
17398;SDS011;8817;48.170;8.592;2023-04-25T09:10:57;6.70;;;6.50;;
17398;SDS011;8817;48.170;8.592;2023-04-25T09:13:24;6.93;;;6.73;;
17398;SDS011;8817;48.170;8.592;2023-04-25T09:15:53;6.60;;;6.40;;
17398;SDS011;8817;48.170;8.592;2023-04-25T09:18:23;6.70;;;6.50;;
17398;SDS011;8817;48.170;8.592;2023-04-25T09:20:51;7.10;;;6.80;;
17398;SDS011;8817;48.170;8.592;2023-04-25T09:23:22;6.70;;;6.50;;
17398;SDS011;8817;48.170;8.592;2023-04-25T09:25:50;6.70;;;6.43;;
17398;SDS011;8817;48.170;8.592;2023-04-25T09:28:22;6.70;;;6.50;;
17398;SDS011;8817;48.170;8.592;2023-04-25T09:30:54;6.90;;;6.67;;
17398;SDS011;8817;48.170;8.592;2023-04-25T09:33:26;6.40;;;6.20;;
17398;SDS011;8817;48.170;8.592;2023-04-25T09:36:01;6.50;;;6.30;;
17398;SDS011;8817;48.170;8.592;2023-04-25T09:38:31;6.60;;;6.40;;
17398;SDS011;8817;48.170;8.592;2023-04-25T09:40:58;6.60;;;6.40;;
17398;SDS011;8817;48.170;8.592;2023-04-25T09:43:26;6.60;;;6.40;;
17398;SDS011;8817;48.170;8.592;2023-04-25T09:45:54;6.60;;;6.40;;
17398;SDS011;8817;48.170;8.592;2023-04-25T09:48:25;6.40;;;6.20;;
17398;SDS011;8817;48.170;8.592;2023-04-25T09:51:06;6.60;;;6.30;;
17398;SDS011;8817;48.170;8.592;2023-04-25T09:53:35;6.50;;;6.30;;
17398;SDS011;8817;48.170;8.592;2023-04-25T09:56:03;6.10;;;6.00;;
17398;SDS011;8817;48.170;8.592;2023-04-25T09:58:32;6.40;;;6.20;;
17398;SDS011;8817;48.170;8.592;2023-04-25T10:01:00;6.50;;;6.30;;
17398;SDS011;8817;48.170;8.592;2023-04-25T10:03:29;6.40;;;6.10;;
17398;SDS011;8817;48.170;8.592;2023-04-25T10:05:58;6.60;;;6.40;;
17398;SDS011;8817;48.170;8.592;2023-04-25T10:08:29;6.63;;;6.43;;
17398;SDS011;8817;48.170;8.592;2023-04-25T10:11:01;6.50;;;6.30;;
17398;SDS011;8817;48.170;8.592;2023-04-25T10:13:29;6.20;;;6.00;;
17398;SDS011;8817;48.170;8.592;2023-04-25T10:15:57;6.30;;;6.00;;
17398;SDS011;8817;48.170;8.592;2023-04-25T10:18:25;6.30;;;6.10;;
17398;SDS011;8817;48.170;8.592;2023-04-25T10:20:53;6.40;;;6.20;;
17398;SDS011;8817;48.170;8.592;2023-04-25T10:23:20;6.30;;;6.10;;
17398;SDS011;8817;48.170;8.592;2023-04-25T10:25:48;6.10;;;5.90;;
17398;SDS011;8817;48.170;8.592;2023-04-25T10:28:17;5.83;;;5.73;;
17398;SDS011;8817;48.170;8.592;2023-04-25T10:30:57;6.20;;;6.00;;
17398;SDS011;8817;48.170;8.592;2023-04-25T10:33:34;6.00;;;5.90;;
17398;SDS011;8817;48.170;8.592;2023-04-25T10:36:09;6.10;;;6.00;;
17398;SDS011;8817;48.170;8.592;2023-04-25T10:38:37;6.20;;;6.00;;
17398;SDS011;8817;48.170;8.592;2023-04-25T10:41:05;6.20;;;6.00;;
17398;SDS011;8817;48.170;8.592;2023-04-25T10:43:36;6.10;;;5.90;;
17398;SDS011;8817;48.170;8.592;2023-04-25T10:46:17;6.40;;;6.20;;
17398;SDS011;8817;48.170;8.592;2023-04-25T10:48:45;6.27;;;6.07;;
17398;SDS011;8817;48.170;8.592;2023-04-25T10:51:18;6.43;;;6.23;;
17398;SDS011;8817;48.170;8.592;2023-04-25T10:53:46;6.10;;;5.90;;
17398;SDS011;8817;48.170;8.592;2023-04-25T10:56:22;6.60;;;6.30;;
17398;SDS011;8817;48.170;8.592;2023-04-25T10:58:52;6.53;;;6.33;;
17398;SDS011;8817;48.170;8.592;2023-04-25T11:01:35;6.60;;;6.30;;
17398;SDS011;8817;48.170;8.592;2023-04-25T11:04:03;6.93;;;6.63;;
17398;SDS011;8817;48.170;8.592;2023-04-25T11:06:32;7.00;;;6.60;;
17398;SDS011;8817;48.170;8.592;2023-04-25T11:09:10;6.37;;;6.17;;
17398;SDS011;8817;48.170;8.592;2023-04-25T11:11:39;6.40;;;6.20;;
17398;SDS011;8817;48.170;8.592;2023-04-25T11:14:07;6.10;;;5.90;;
17398;SDS011;8817;48.170;8.592;2023-04-25T11:16:34;6.50;;;6.30;;
17398;SDS011;8817;48.170;8.592;2023-04-25T11:19:01;5.87;;;5.67;;
17398;SDS011;8817;48.170;8.592;2023-04-25T11:21:29;6.67;;;6.37;;
17398;SDS011;8817;48.170;8.592;2023-04-25T11:23:56;6.50;;;6.30;;
17398;SDS011;8817;48.170;8.592;2023-04-25T11:26:24;6.80;;;6.50;;
17398;SDS011;8817;48.170;8.592;2023-04-25T11:28:51;6.43;;;6.23;;
17398;SDS011;8817;48.170;8.592;2023-04-25T11:31:24;6.00;;;5.80;;
17398;SDS011;8817;48.170;8.592;2023-04-25T11:33:52;6.27;;;6.07;;
17398;SDS011;8817;48.170;8.592;2023-04-25T11:36:20;6.90;;;6.50;;
17398;SDS011;8817;48.170;8.592;2023-04-25T11:38:48;6.60;;;6.30;;
17398;SDS011;8817;48.170;8.592;2023-04-25T11:41:16;6.20;;;6.00;;
17398;SDS011;8817;48.170;8.592;2023-04-25T11:43:43;6.30;;;6.10;;
17398;SDS011;8817;48.170;8.592;2023-04-25T11:46:10;6.40;;;6.10;;
17398;SDS011;8817;48.170;8.592;2023-04-25T11:48:39;7.00;;;6.70;;
17398;SDS011;8817;48.170;8.592;2023-04-25T11:51:07;6.50;;;6.20;;
17398;SDS011;8817;48.170;8.592;2023-04-25T11:53:34;6.77;;;6.37;;
17398;SDS011;8817;48.170;8.592;2023-04-25T11:56:01;6.47;;;6.17;;
17398;SDS011;8817;48.170;8.592;2023-04-25T12:01:28;6.13;;;5.90;;
17398;SDS011;8817;48.170;8.592;2023-04-25T12:03:56;6.50;;;6.20;;
17398;SDS011;8817;48.170;8.592;2023-04-25T12:06:25;6.30;;;6.10;;
17398;SDS011;8817;48.170;8.592;2023-04-25T12:09:00;6.70;;;6.40;;
17398;SDS011;8817;48.170;8.592;2023-04-25T12:11:29;6.27;;;6.00;;
17398;SDS011;8817;48.170;8.592;2023-04-25T12:14:01;6.60;;;6.20;;
17398;SDS011;8817;48.170;8.592;2023-04-25T12:16:28;6.70;;;6.30;;
17398;SDS011;8817;48.170;8.592;2023-04-25T12:18:57;7.17;;;6.30;;
17398;SDS011;8817;48.170;8.592;2023-04-25T12:21:27;6.70;;;6.40;;
17398;SDS011;8817;48.170;8.592;2023-04-25T12:23:55;6.17;;;5.90;;
17398;SDS011;8817;48.170;8.592;2023-04-25T12:26:23;6.33;;;6.07;;
17398;SDS011;8817;48.170;8.592;2023-04-25T12:28:50;6.50;;;6.20;;
17398;SDS011;8817;48.170;8.592;2023-04-25T12:31:17;7.30;;;6.70;;
17398;SDS011;8817;48.170;8.592;2023-04-25T12:33:44;7.13;;;6.70;;
17398;SDS011;8817;48.170;8.592;2023-04-25T12:36:14;7.00;;;6.50;;
17398;SDS011;8817;48.170;8.592;2023-04-25T12:38:42;6.77;;;6.47;;
17398;SDS011;8817;48.170;8.592;2023-04-25T12:41:09;6.33;;;6.13;;
17398;SDS011;8817;48.170;8.592;2023-04-25T12:43:36;7.23;;;6.83;;
17398;SDS011;8817;48.170;8.592;2023-04-25T12:46:03;6.73;;;6.50;;
17398;SDS011;8817;48.170;8.592;2023-04-25T12:48:30;6.90;;;6.60;;
17398;SDS011;8817;48.170;8.592;2023-04-25T12:50:57;7.50;;;7.00;;
17398;SDS011;8817;48.170;8.592;2023-04-25T12:53:25;7.27;;;6.77;;
17398;SDS011;8817;48.170;8.592;2023-04-25T12:55:52;7.10;;;6.63;;
17398;SDS011;8817;48.170;8.592;2023-04-25T12:58:19;6.33;;;6.13;;
17398;SDS011;8817;48.170;8.592;2023-04-25T13:00:46;6.47;;;6.27;;
17398;SDS011;8817;48.170;8.592;2023-04-25T13:03:13;6.73;;;6.40;;
17398;SDS011;8817;48.170;8.592;2023-04-25T13:05:40;6.40;;;6.20;;
17398;SDS011;8817;48.170;8.592;2023-04-25T13:08:08;6.40;;;6.10;;
17398;SDS011;8817;48.170;8.592;2023-04-25T13:10:36;6.57;;;6.27;;
17398;SDS011;8817;48.170;8.592;2023-04-25T13:13:04;6.80;;;6.50;;
17398;SDS011;8817;48.170;8.592;2023-04-25T13:15:31;6.60;;;6.30;;
17398;SDS011;8817;48.170;8.592;2023-04-25T13:17:58;6.47;;;6.23;;
17398;SDS011;8817;48.170;8.592;2023-04-25T13:20:25;6.83;;;6.53;;
17398;SDS011;8817;48.170;8.592;2023-04-25T13:22:52;6.57;;;6.27;;
17398;SDS011;8817;48.170;8.592;2023-04-25T13:25:19;7.20;;;6.80;;
17398;SDS011;8817;48.170;8.592;2023-04-25T13:27:48;6.40;;;6.20;;
17398;SDS011;8817;48.170;8.592;2023-04-25T13:30:15;6.83;;;6.53;;
17398;SDS011;8817;48.170;8.592;2023-04-25T13:32:42;6.40;;;6.17;;
17398;SDS011;8817;48.170;8.592;2023-04-25T13:35:10;6.60;;;6.30;;
17398;SDS011;8817;48.170;8.592;2023-04-25T13:37:38;6.30;;;6.00;;
17398;SDS011;8817;48.170;8.592;2023-04-25T13:40:06;6.10;;;5.90;;
17398;SDS011;8817;48.170;8.592;2023-04-25T13:42:36;6.30;;;6.10;;
17398;SDS011;8817;48.170;8.592;2023-04-25T13:45:05;6.00;;;5.80;;
17398;SDS011;8817;48.170;8.592;2023-04-25T13:47:34;6.93;;;6.27;;
17398;SDS011;8817;48.170;8.592;2023-04-25T13:50:01;6.30;;;6.10;;
17398;SDS011;8817;48.170;8.592;2023-04-25T13:52:28;6.10;;;5.87;;
17398;SDS011;8817;48.170;8.592;2023-04-25T13:54:55;5.67;;;5.57;;
17398;SDS011;8817;48.170;8.592;2023-04-25T13:57:22;6.00;;;5.80;;
17398;SDS011;8817;48.170;8.592;2023-04-25T13:59:50;6.07;;;5.87;;
17398;SDS011;8817;48.170;8.592;2023-04-25T14:02:19;5.83;;;5.63;;
17398;SDS011;8817;48.170;8.592;2023-04-25T14:04:46;6.00;;;5.80;;
17398;SDS011;8817;48.170;8.592;2023-04-25T14:07:13;6.10;;;5.90;;
17398;SDS011;8817;48.170;8.592;2023-04-25T14:09:41;6.13;;;5.83;;
17398;SDS011;8817;48.170;8.592;2023-04-25T14:12:08;5.90;;;5.70;;
17398;SDS011;8817;48.170;8.592;2023-04-25T14:14:35;5.87;;;5.67;;
17398;SDS011;8817;48.170;8.592;2023-04-25T14:17:03;6.17;;;5.97;;
17398;SDS011;8817;48.170;8.592;2023-04-25T14:19:31;5.87;;;5.67;;
17398;SDS011;8817;48.170;8.592;2023-04-25T14:21:58;5.80;;;5.60;;
17398;SDS011;8817;48.170;8.592;2023-04-25T14:24:25;5.87;;;5.60;;
17398;SDS011;8817;48.170;8.592;2023-04-25T14:26:52;5.73;;;5.53;;
17398;SDS011;8817;48.170;8.592;2023-04-25T14:29:19;5.50;;;5.40;;
17398;SDS011;8817;48.170;8.592;2023-04-25T14:31:46;6.13;;;5.93;;
17398;SDS011;8817;48.170;8.592;2023-04-25T14:34:13;6.13;;;5.87;;
17398;SDS011;8817;48.170;8.592;2023-04-25T14:36:41;6.10;;;5.90;;
17398;SDS011;8817;48.170;8.592;2023-04-25T14:39:08;6.67;;;6.37;;
17398;SDS011;8817;48.170;8.592;2023-04-25T14:41:37;6.10;;;5.90;;
17398;SDS011;8817;48.170;8.592;2023-04-25T14:44:04;7.17;;;6.67;;
17398;SDS011;8817;48.170;8.592;2023-04-25T14:46:31;5.90;;;5.70;;
17398;SDS011;8817;48.170;8.592;2023-04-25T14:48:58;5.90;;;5.70;;
17398;SDS011;8817;48.170;8.592;2023-04-25T14:51:25;5.90;;;5.70;;
17398;SDS011;8817;48.170;8.592;2023-04-25T14:53:54;6.10;;;5.80;;
17398;SDS011;8817;48.170;8.592;2023-04-25T14:56:21;6.07;;;5.77;;
17398;SDS011;8817;48.170;8.592;2023-04-25T14:58:48;6.17;;;5.97;;
17398;SDS011;8817;48.170;8.592;2023-04-25T15:01:15;6.73;;;6.43;;
17398;SDS011;8817;48.170;8.592;2023-04-25T15:03:42;6.07;;;5.87;;
17398;SDS011;8817;48.170;8.592;2023-04-25T15:06:09;8.33;;;5.80;;